createdAt,value
2023-02-05T00:00:00.310Z,100573.96
2023-02-05T00:02:55.267Z,100576.05
2023-02-05T00:05:58.302Z,100575.14
2023-02-05T00:09:00.274Z,100579.02
2023-02-05T00:12:03.237Z,100582.73
2023-02-05T00:15:06.245Z,100580.35
2023-02-05T00:18:08.250Z,100580.52
2023-02-05T00:21:10.272Z,100578.92
2023-02-05T00:24:14.294Z,100584.71
2023-02-05T00:27:17.323Z,100579.82
2023-02-05T00:30:19.328Z,100577.13
2023-02-05T00:33:22.301Z,100578.20
2023-02-05T00:36:24.642Z,100579.91
2023-02-05T00:39:27.323Z,100584.63
2023-02-05T00:42:29.315Z,100582.71
2023-02-05T00:45:32.564Z,100581.65
2023-02-05T00:48:34.287Z,100582.34
2023-02-05T00:51:36.313Z,100586.20
2023-02-05T00:54:38.306Z,100581.20
2023-02-05T00:57:43.326Z,100581.49
2023-02-05T01:00:45.342Z,100581.20
2023-02-05T01:03:48.318Z,100582.91
2023-02-05T01:06:50.454Z,100580.61
2023-02-05T01:09:52.326Z,100578.15
2023-02-05T01:12:54.352Z,100580.43
2023-02-05T01:15:56.410Z,100575.83
2023-02-05T01:18:59.347Z,100576.73
2023-02-05T01:22:01.385Z,100577.45
2023-02-05T01:25:03.374Z,100577.45
2023-02-05T01:28:06.485Z,100578.17
2023-02-05T01:31:08.450Z,100579.74
2023-02-05T01:34:17.364Z,100583.02
2023-02-05T01:37:19.440Z,100584.02
2023-02-05T01:40:21.377Z,100586.24
2023-02-05T01:43:28.537Z,100586.33
2023-02-05T01:46:35.472Z,100585.33
2023-02-05T01:49:38.409Z,100585.05
2023-02-05T01:52:40.408Z,100581.01
2023-02-05T01:55:43.409Z,100579.31
2023-02-05T01:58:53.408Z,100582.35
2023-02-05T02:01:58.579Z,100589.42
2023-02-05T02:05:01.698Z,100586.70
2023-02-05T02:08:04.579Z,100584.32
2023-02-05T02:11:07.455Z,100592.21
2023-02-05T02:14:09.460Z,100589.13
2023-02-05T02:17:11.469Z,100590.88
2023-02-05T02:20:16.418Z,100581.84
2023-02-05T02:23:22.447Z,100587.05
2023-02-05T02:26:47.463Z,100588.03
2023-02-05T02:30:07.540Z,100582.23
2023-02-05T02:33:25.478Z,100579.34
2023-02-05T02:36:27.558Z,100572.54
2023-02-05T02:39:31.473Z,100581.77
2023-02-05T02:42:39.825Z,100583.25
2023-02-05T02:45:43.481Z,100583.52
2023-02-05T02:48:45.563Z,100584.29
2023-02-05T02:51:48.468Z,100584.45
2023-02-05T02:54:50.518Z,100588.45
2023-02-05T02:57:54.483Z,100590.61
2023-02-05T03:00:58.582Z,100596.67
2023-02-05T03:04:03.534Z,100602.93
2023-02-05T03:07:05.547Z,100608.63
2023-02-05T03:10:17.607Z,100605.59
2023-02-05T03:13:22.577Z,100607.73
2023-02-05T03:16:27.572Z,100604.79
2023-02-05T03:19:30.640Z,100605.54
2023-02-05T03:22:32.603Z,100604.96
2023-02-05T03:25:37.643Z,100603.89
2023-02-05T03:28:39.632Z,100606.33
2023-02-05T03:31:47.626Z,100607.71
2023-02-05T03:34:55.588Z,100604.90
2023-02-05T03:38:10.591Z,100604.48
2023-02-05T03:41:58.637Z,100610.47
2023-02-05T03:45:33.957Z,100610.48
2023-02-05T03:48:45.591Z,100615.72
2023-02-05T03:52:05.606Z,100620.45
2023-02-05T03:55:28.635Z,100623.48
2023-02-05T03:58:36.647Z,100624.48
2023-02-05T04:01:38.608Z,100621.77
2023-02-05T04:04:41.685Z,100616.77
2023-02-05T04:07:44.591Z,100619.93
2023-02-05T04:10:47.695Z,100628.29
2023-02-05T04:13:52.601Z,100632.23
2023-02-05T04:16:54.746Z,100626.40
2023-02-05T04:19:57.646Z,100621.67
2023-02-05T04:23:00.620Z,100619.34
2023-02-05T04:26:08.655Z,100620.79
2023-02-05T04:29:15.678Z,100618.38
2023-02-05T04:32:18.674Z,100618.05
2023-02-05T04:35:20.650Z,100622.40
2023-02-05T04:38:25.782Z,100616.95
2023-02-05T04:41:28.675Z,100616.60
2023-02-05T04:44:30.705Z,100624.90
2023-02-05T04:47:33.703Z,100624.29
2023-02-05T04:50:35.790Z,100621.29
2023-02-05T04:53:38.131Z,100622.39
2023-02-05T04:56:39.727Z,100628.43
2023-02-05T04:59:45.855Z,100630.42
2023-02-05T05:02:50.072Z,100633.09
2023-02-05T05:05:51.769Z,100637.20
2023-02-05T05:08:57.143Z,100638.59
2023-02-05T05:11:58.779Z,100644.24
2023-02-05T05:15:01.771Z,100644.52
2023-02-05T05:18:03.970Z,100643.66
2023-02-05T05:21:07.983Z,100646.73
2023-02-05T05:24:09.816Z,100644.48
2023-02-05T05:27:12.912Z,100644.35
2023-02-05T05:30:07.800Z,100642.95
2023-02-05T05:32:59.090Z,100646.00
2023-02-05T05:36:02.345Z,100646.08
2023-02-05T05:39:28.904Z,100655.40
2023-02-05T05:42:52.856Z,100657.13
2023-02-05T05:45:55.784Z,100661.77
2023-02-05T05:48:59.297Z,100666.13
2023-02-05T05:52:00.822Z,100670.52
2023-02-05T05:54:55.924Z,100679.72
2023-02-05T05:57:58.831Z,100681.59
2023-02-05T06:01:00.803Z,100683.69
2023-02-05T06:04:04.477Z,100681.73
2023-02-05T06:07:08.810Z,100683.02
2023-02-05T06:10:11.970Z,100686.88
2023-02-05T06:13:15.836Z,100690.09
2023-02-05T06:16:19.048Z,100691.95
2023-02-05T06:19:20.856Z,100696.55
2023-02-05T06:22:23.928Z,100699.73
2023-02-05T06:25:26.849Z,100700.54
2023-02-05T06:28:29.002Z,100703.46
2023-02-05T06:31:33.034Z,100707.20
2023-02-05T06:34:34.904Z,100712.41
2023-02-05T06:37:47.191Z,100717.27
2023-02-05T06:40:52.888Z,100714.02
2023-02-05T06:43:54.832Z,100718.98
2023-02-05T06:46:57.994Z,100715.55
2023-02-05T06:50:02.267Z,100720.22
2023-02-05T06:53:03.921Z,100722.91
2023-02-05T06:56:05.856Z,100729.58
2023-02-05T06:59:07.869Z,100729.45
2023-02-05T07:02:11.340Z,100727.27
2023-02-05T07:05:13.996Z,100729.48
2023-02-05T07:08:18.029Z,100730.77
2023-02-05T07:11:20.938Z,100734.85
2023-02-05T07:14:16.070Z,100730.50
2023-02-05T07:17:00.154Z,100737.45
2023-02-05T07:19:47.960Z,100740.27
2023-02-05T07:22:35.958Z,100741.05
2023-02-05T07:25:42.923Z,100746.11
2023-02-05T07:28:45.040Z,100750.27
2023-02-05T07:31:47.009Z,100749.27
2023-02-05T07:34:48.963Z,100750.60
2023-02-05T07:37:52.959Z,100751.45
2023-02-05T07:40:54.986Z,100747.75
2023-02-05T07:43:56.971Z,100747.82
2023-02-05T07:46:59.113Z,100748.39
2023-02-05T07:50:01.031Z,100746.13
2023-02-05T07:53:05.080Z,100747.88
2023-02-05T07:56:02.547Z,100749.85
2023-02-05T07:59:04.027Z,100749.83
2023-02-05T08:02:06.067Z,100757.29
2023-02-05T08:05:14.108Z,100755.68
2023-02-05T08:08:16.087Z,100763.19
2023-02-05T08:11:19.029Z,100772.97
2023-02-05T08:14:26.130Z,100769.71
2023-02-05T08:17:28.066Z,100765.63
2023-02-05T08:20:30.141Z,100769.08
2023-02-05T08:23:32.179Z,100767.95
2023-02-05T08:26:34.151Z,100776.66
2023-02-05T08:29:36.111Z,100780.05
2023-02-05T08:32:38.095Z,100784.43
2023-02-05T08:35:41.026Z,100791.98
2023-02-05T08:38:43.413Z,100792.40
2023-02-05T08:41:47.138Z,100798.88
2023-02-05T08:44:50.084Z,100801.73
2023-02-05T08:47:53.090Z,100800.34
2023-02-05T08:50:55.245Z,100800.78
2023-02-05T08:53:57.153Z,100806.92
2023-02-05T08:56:59.063Z,100807.00
2023-02-05T09:00:03.127Z,100810.37
2023-02-05T09:03:09.120Z,100815.03
2023-02-05T09:06:19.330Z,100814.02
2023-02-05T09:09:14.108Z,100813.48
2023-02-05T09:11:58.898Z,100816.10
2023-02-05T09:14:48.167Z,100811.71
2023-02-05T09:17:30.216Z,100810.20
2023-02-05T09:20:18.146Z,100806.19
2023-02-05T09:23:07.159Z,100808.17
2023-02-05T09:26:12.301Z,100811.96
2023-02-05T09:29:20.237Z,100812.41
2023-02-05T09:32:28.643Z,100806.56
2023-02-05T09:35:33.661Z,100797.77
2023-02-05T09:38:36.144Z,100800.87
2023-02-05T09:41:45.257Z,100799.52
2023-02-05T09:45:04.204Z,100799.15
2023-02-05T09:48:15.241Z,100804.19
2023-02-05T09:51:17.421Z,100801.33
2023-02-05T09:54:47.230Z,100805.13
2023-02-05T09:57:52.549Z,100807.77
2023-02-05T10:01:00.341Z,100811.29
2023-02-05T10:04:08.231Z,100814.21
2023-02-05T10:07:23.277Z,100810.91
2023-02-05T10:10:39.250Z,100815.36
2023-02-05T10:13:51.382Z,100822.35
2023-02-05T10:17:36.409Z,100823.71
2023-02-05T10:20:48.281Z,100829.33
2023-02-05T10:24:16.235Z,100832.23
2023-02-05T10:27:26.265Z,100837.50
2023-02-05T10:30:48.789Z,100840.27
2023-02-05T10:34:05.726Z,100835.73
2023-02-05T10:37:09.553Z,100838.69
2023-02-05T10:40:14.293Z,100841.80
2023-02-05T10:43:45.874Z,100845.23
2023-02-05T10:47:04.261Z,100845.55
2023-02-05T10:53:49.776Z,100847.23
2023-02-05T10:56:51.357Z,100851.22
2023-02-05T11:00:01.412Z,100857.33
2023-02-05T11:03:08.388Z,100850.37
2023-02-05T11:06:10.404Z,100854.84
2023-02-05T11:09:17.322Z,100864.50
2023-02-05T11:12:42.417Z,100860.27
2023-02-05T11:15:44.492Z,100864.50
2023-02-05T11:18:58.578Z,100867.06
2023-02-05T11:22:03.416Z,100863.85
2023-02-05T11:25:05.338Z,100862.06
2023-02-05T11:28:13.374Z,100856.27
2023-02-05T11:31:41.679Z,100858.03
2023-02-05T11:34:43.429Z,100860.53
2023-02-05T11:37:46.377Z,100862.30
2023-02-05T11:40:48.386Z,100868.23
2023-02-05T11:43:52.375Z,100869.92
2023-02-05T11:46:56.407Z,100870.62
2023-02-05T11:49:59.388Z,100870.34
2023-02-05T11:53:03.422Z,100872.93
2023-02-05T11:56:09.480Z,100875.48
2023-02-05T11:59:16.426Z,100879.61
2023-02-05T12:02:40.449Z,100881.11
2023-02-05T12:05:46.460Z,100886.06
2023-02-05T12:09:07.421Z,100883.77
2023-02-05T12:12:31.546Z,100886.73
2023-02-05T12:15:44.369Z,100888.73
2023-02-05T12:18:52.450Z,100888.41
2023-02-05T12:21:57.897Z,100888.16
2023-02-05T12:25:12.701Z,100895.98
2023-02-05T12:28:45.599Z,100901.27
2023-02-05T12:31:52.494Z,100903.40
2023-02-05T12:35:18.692Z,100904.06
2023-02-05T12:38:34.877Z,100906.45
2023-02-05T12:41:56.551Z,100902.59
2023-02-05T12:45:33.996Z,100903.33
2023-02-05T12:49:14.827Z,100899.58
2023-02-05T12:53:03.493Z,100904.23
2023-02-05T12:56:30.502Z,100907.02
2023-02-05T12:59:41.530Z,100906.39
2023-02-05T13:02:43.621Z,100912.55
2023-02-05T13:05:40.578Z,100910.70
2023-02-05T13:08:58.511Z,100911.18
2023-02-05T13:12:05.250Z,100908.25
2023-02-05T13:15:23.486Z,100912.58
2023-02-05T13:18:39.586Z,100915.48
2023-02-05T13:21:59.665Z,100915.65
2023-02-05T13:25:36.662Z,100914.74
2023-02-05T13:28:50.593Z,100914.11
2023-02-05T13:32:04.292Z,100920.52
2023-02-05T13:35:12.591Z,100929.27
2023-02-05T13:38:27.891Z,100929.89
2023-02-05T13:41:49.596Z,100933.46
2023-02-05T13:44:56.818Z,100935.48
2023-02-05T13:48:36.660Z,100939.77
2023-02-05T13:51:46.593Z,100941.97
2023-02-05T13:54:52.587Z,100943.52
2023-02-05T13:58:27.625Z,100942.66
2023-02-05T14:01:35.670Z,100949.39
2023-02-05T14:04:52.666Z,100955.54
2023-02-05T14:08:08.844Z,100953.18
2023-02-05T14:11:12.610Z,100957.57
2023-02-05T14:14:43.705Z,100965.17
2023-02-05T14:17:45.768Z,100966.51
2023-02-05T14:20:54.601Z,100966.65
2023-02-05T14:24:01.883Z,100969.75
2023-02-05T14:27:11.756Z,100967.98
2023-02-05T14:30:58.970Z,100976.44
2023-02-05T14:34:02.138Z,100978.77
2023-02-05T14:37:05.655Z,100985.68
2023-02-05T14:40:08.642Z,100987.98
2023-02-05T14:43:16.829Z,100993.08
2023-02-05T14:46:34.711Z,100989.86
2023-02-05T14:49:59.673Z,100997.87
2023-02-05T14:53:04.670Z,101000.29
2023-02-05T14:56:07.662Z,100997.73
2023-02-05T14:59:14.673Z,100997.80
2023-02-05T15:02:16.991Z,100996.72
2023-02-05T15:05:19.745Z,101004.64
2023-02-05T15:08:28.754Z,101007.87
2023-02-05T15:11:48.791Z,101016.05
2023-02-05T15:14:48.733Z,101020.38
2023-02-05T15:17:46.093Z,101025.34
2023-02-05T15:20:51.730Z,101027.92
2023-02-05T15:24:02.910Z,101031.24
2023-02-05T15:27:12.701Z,101033.96
2023-02-05T15:30:15.765Z,101038.70
2023-02-05T15:33:21.760Z,101039.42
2023-02-05T15:36:33.766Z,101040.24
2023-02-05T15:39:41.293Z,101042.55
2023-02-05T15:42:53.856Z,101042.34
2023-02-05T15:45:56.788Z,101043.59
2023-02-05T15:48:59.976Z,101047.55
2023-02-05T15:51:54.815Z,101049.91
2023-02-05T15:54:39.033Z,101051.02
2023-02-05T15:57:29.893Z,101052.20
2023-02-05T16:00:19.970Z,101057.23
2023-02-05T16:03:38.824Z,101065.98
2023-02-05T16:06:41.826Z,101074.59
2023-02-05T16:09:45.824Z,101074.94
2023-02-05T16:12:47.780Z,101080.59
2023-02-05T16:15:49.892Z,101080.10
2023-02-05T16:19:11.944Z,101083.14
2023-02-05T16:22:52.913Z,101088.75
2023-02-05T16:26:01.837Z,101095.14
2023-02-05T16:29:24.517Z,101099.20
2023-02-05T16:32:43.890Z,101102.17
2023-02-05T16:35:49.073Z,101106.65
2023-02-05T16:38:50.832Z,101115.83
2023-02-05T16:41:55.848Z,101125.05
2023-02-05T16:44:58.890Z,101121.96
2023-02-05T16:48:28.880Z,101127.83
2023-02-05T16:51:42.880Z,101131.20
2023-02-05T16:54:42.021Z,101132.39
2023-02-05T16:57:38.870Z,101133.11
2023-02-05T17:00:40.934Z,101138.79
2023-02-05T17:03:51.139Z,101139.38
2023-02-05T17:06:53.953Z,101145.59
2023-02-05T17:09:56.019Z,101155.91
2023-02-05T17:13:16.952Z,101154.23
2023-02-05T17:16:41.012Z,101157.55
2023-02-05T17:19:46.989Z,101164.65
2023-02-05T17:22:51.895Z,101174.17
2023-02-05T17:25:55.969Z,101171.23
2023-02-05T17:29:09.965Z,101179.31
2023-02-05T17:32:11.972Z,101184.73
2023-02-05T17:35:17.999Z,101184.73
2023-02-05T17:38:23.305Z,101186.12
2023-02-05T17:41:57.002Z,101188.02
2023-02-05T17:45:02.636Z,101192.12
2023-02-05T17:48:05.040Z,101192.48
2023-02-05T17:51:07.953Z,101189.93
2023-02-05T17:54:10.121Z,101194.83
2023-02-05T17:57:19.114Z,101191.67
2023-02-05T18:00:30.898Z,101194.83
2023-02-05T18:03:26.208Z,101201.75
2023-02-05T18:06:07.081Z,101198.28
2023-02-05T18:08:55.019Z,101206.17
2023-02-05T18:11:36.679Z,101209.35
2023-02-05T18:14:31.631Z,101211.81
2023-02-05T18:17:33.060Z,101211.61
2023-02-05T18:20:36.355Z,101219.46
2023-02-05T18:23:39.079Z,101221.58
2023-02-05T18:26:43.038Z,101224.86
2023-02-05T18:29:45.066Z,101228.37
2023-02-05T18:32:47.106Z,101230.33
2023-02-05T18:35:51.655Z,101232.60
2023-02-05T18:38:59.332Z,101238.54
2023-02-05T18:42:07.122Z,101239.98
2023-02-05T18:45:09.334Z,101239.66
2023-02-05T18:48:11.202Z,101240.77
2023-02-05T18:51:19.187Z,101240.82
2023-02-05T18:54:21.152Z,101240.85
2023-02-05T18:57:26.265Z,101240.77
2023-02-05T19:00:29.105Z,101244.11
2023-02-05T19:03:25.125Z,101249.85
2023-02-05T19:06:18.126Z,101249.26
2023-02-05T19:09:13.177Z,101252.02
2023-02-05T19:12:02.146Z,101256.39
2023-02-05T19:14:58.225Z,101262.55
2023-02-05T19:18:01.111Z,101268.61
2023-02-05T19:21:03.104Z,101271.80
2023-02-05T19:24:06.146Z,101272.72
2023-02-05T19:27:08.134Z,101273.13
2023-02-05T19:30:11.181Z,101281.27
2023-02-05T19:33:13.163Z,101288.23
2023-02-05T19:36:15.181Z,101288.28
2023-02-05T19:39:18.154Z,101291.77
2023-02-05T19:42:21.274Z,101295.27
2023-02-05T19:45:23.379Z,101296.93
2023-02-05T19:48:26.293Z,101301.44
2023-02-05T19:51:30.392Z,101302.27
2023-02-05T19:54:32.292Z,101304.89
2023-02-05T19:57:34.210Z,101309.54
2023-02-05T20:00:36.419Z,101308.85
2023-02-05T20:03:38.206Z,101314.83
2023-02-05T20:06:41.252Z,101314.52
2023-02-05T20:09:44.297Z,101323.00
2023-02-05T20:12:46.263Z,101325.69
2023-02-05T20:15:49.383Z,101319.63
2023-02-05T20:18:52.287Z,101324.91
2023-02-05T20:21:55.300Z,101326.82
2023-02-05T20:24:57.268Z,101330.15
2023-02-05T20:28:01.462Z,101335.92
2023-02-05T20:31:24.372Z,101336.02
2023-02-05T20:34:28.282Z,101332.16
2023-02-05T20:37:38.247Z,101335.77
2023-02-05T20:40:43.298Z,101335.91
2023-02-05T20:43:50.506Z,101341.42
2023-02-05T20:46:56.652Z,101350.89
2023-02-05T20:50:02.317Z,101349.67
2023-02-05T20:53:07.290Z,101354.14
2023-02-05T20:56:13.282Z,101360.23
2023-02-05T20:59:17.293Z,101361.92
2023-02-05T21:02:22.559Z,101369.43
2023-02-05T21:05:25.287Z,101367.91
2023-02-05T21:08:28.404Z,101375.77
2023-02-05T21:11:32.787Z,101378.30
2023-02-05T21:14:39.344Z,101387.45
2023-02-05T21:17:45.302Z,101394.88
2023-02-05T21:21:10.894Z,101393.00
2023-02-05T21:24:16.869Z,101395.58
2023-02-05T21:27:19.406Z,101401.27
2023-02-05T21:30:23.668Z,101397.46
2023-02-05T21:33:27.438Z,101400.35
2023-02-05T21:36:31.351Z,101401.23
2023-02-05T21:39:45.414Z,101399.94
2023-02-05T21:42:54.584Z,101404.57
2023-02-05T21:45:57.875Z,101411.27
2023-02-05T21:49:03.531Z,101413.39
2023-02-05T21:52:11.665Z,101410.98
2023-02-05T21:55:17.433Z,101413.48
2023-02-05T21:58:19.363Z,101414.38
2023-02-05T22:01:26.425Z,101421.14
2023-02-05T22:04:32.967Z,101426.33
2023-02-05T22:07:34.429Z,101427.37
2023-02-05T22:10:36.669Z,101424.75
2023-02-05T22:13:41.397Z,101431.06
2023-02-05T22:16:48.956Z,101429.55
2023-02-05T22:19:50.575Z,101429.71
2023-02-05T22:22:52.468Z,101427.02
2023-02-05T22:25:59.801Z,101429.01
2023-02-05T22:29:08.563Z,101431.07
2023-02-05T22:32:10.602Z,101432.67
2023-02-05T22:35:13.739Z,101437.43
2023-02-05T22:38:43.227Z,101439.45
2023-02-05T22:41:49.436Z,101439.06
2023-02-05T22:44:52.478Z,101442.70
2023-02-05T22:47:55.545Z,101452.68
2023-02-05T22:50:57.635Z,101452.95
2023-02-05T22:53:59.466Z,101455.84
2023-02-05T22:57:01.563Z,101450.69
2023-02-05T23:00:05.669Z,101454.65
2023-02-05T23:03:12.830Z,101453.38
2023-02-05T23:06:14.494Z,101455.80
2023-02-05T23:09:23.472Z,101456.31
2023-02-05T23:12:28.789Z,101457.34
2023-02-05T23:15:33.054Z,101457.17
2023-02-05T23:18:36.643Z,101467.71
2023-02-05T23:21:39.496Z,101474.21
2023-02-05T23:24:42.529Z,101477.49
2023-02-05T23:27:45.623Z,101470.38
2023-02-05T23:30:47.640Z,101477.92
2023-02-05T23:33:50.522Z,101475.58
2023-02-05T23:36:54.787Z,101473.28
2023-02-05T23:39:56.620Z,101480.00
2023-02-05T23:42:59.565Z,101481.11
2023-02-05T23:46:03.616Z,101484.11
2023-02-05T23:49:05.664Z,101484.21
2023-02-05T23:52:07.615Z,101483.35
2023-02-05T23:55:09.581Z,101488.77
2023-02-05T23:58:12.583Z,101489.75
